createdAt,value
2023-03-11T00:00:50.310Z,9.80
2023-03-11T00:03:20.486Z,9.80
2023-03-11T00:05:49.172Z,9.90
2023-03-11T00:08:20.086Z,9.80
2023-03-11T00:10:52.113Z,9.80
2023-03-11T00:13:22.479Z,9.80
2023-03-11T00:15:55.951Z,9.90
2023-03-11T00:18:27.369Z,9.90
2023-03-11T00:20:57.220Z,9.90
2023-03-11T00:23:26.865Z,9.80
2023-03-11T00:25:55.791Z,9.80
2023-03-11T00:28:26.944Z,9.80
2023-03-11T00:30:55.606Z,9.80
2023-03-11T00:33:24.111Z,9.80
2023-03-11T00:35:52.532Z,9.80
2023-03-11T00:38:22.125Z,9.80
2023-03-11T00:40:51.341Z,9.80
2023-03-11T00:43:19.889Z,9.80
2023-03-11T00:45:49.935Z,9.80
2023-03-11T00:48:18.520Z,9.70
2023-03-11T00:50:47.077Z,9.80
2023-03-11T00:53:15.474Z,9.70
2023-03-11T00:55:44.276Z,9.70
2023-03-11T00:58:14.397Z,9.70
2023-03-11T01:00:51.274Z,9.70
2023-03-11T01:03:19.609Z,9.70
2023-03-11T01:05:48.093Z,9.60
2023-03-11T01:08:16.445Z,9.60
2023-03-11T01:10:44.916Z,9.60
2023-03-11T01:13:14.235Z,9.60
2023-03-11T01:15:42.809Z,9.60
2023-03-11T01:18:14.300Z,9.50
2023-03-11T01:20:43.228Z,9.50
2023-03-11T01:23:13.835Z,9.40
2023-03-11T01:25:42.497Z,9.40
2023-03-11T01:28:10.974Z,9.30
2023-03-11T01:30:41.599Z,9.30
2023-03-11T01:33:14.672Z,9.20
2023-03-11T01:35:43.738Z,9.10
2023-03-11T01:38:13.392Z,9.10
2023-03-11T01:40:44.340Z,9.00
2023-03-11T01:43:41.919Z,9.00
2023-03-11T01:47:18.062Z,9.00
2023-03-11T01:49:50.012Z,8.90
2023-03-11T01:52:18.472Z,8.90
2023-03-11T01:54:52.016Z,8.90
2023-03-11T01:57:22.711Z,8.90
2023-03-11T01:59:57.121Z,8.90
2023-03-11T02:02:31.992Z,8.90
2023-03-11T02:05:04.221Z,8.90
2023-03-11T02:07:33.275Z,8.90
2023-03-11T02:10:03.088Z,8.90
2023-03-11T02:12:35.642Z,8.90
2023-03-11T02:15:07.039Z,8.90
2023-03-11T02:17:39.606Z,8.90
2023-03-11T02:20:24.054Z,9.00
2023-03-11T02:22:57.470Z,8.90
2023-03-11T02:25:35.840Z,9.00
2023-03-11T02:28:09.556Z,9.00
2023-03-11T02:30:41.872Z,8.90
2023-03-11T02:33:11.056Z,9.00
2023-03-11T02:35:39.864Z,9.00
2023-03-11T02:38:08.463Z,8.90
2023-03-11T02:40:51.828Z,8.90
2023-03-11T02:43:27.701Z,8.90
2023-03-11T02:45:57.090Z,8.90
2023-03-11T02:48:26.113Z,8.90
2023-03-11T02:50:54.815Z,8.80
2023-03-11T02:53:23.237Z,8.80
2023-03-11T02:55:51.827Z,8.80
2023-03-11T02:58:20.245Z,8.80
2023-03-11T03:00:50.032Z,8.80
2023-03-11T03:03:20.086Z,8.70
2023-03-11T03:05:48.927Z,8.70
2023-03-11T03:08:17.326Z,8.70
2023-03-11T03:10:45.893Z,8.70
2023-03-11T03:13:14.460Z,8.60
2023-03-11T03:15:43.065Z,8.60
2023-03-11T03:18:13.067Z,8.70
2023-03-11T03:20:41.590Z,8.60
2023-03-11T03:23:10.086Z,8.60
2023-03-11T03:25:38.602Z,8.60
2023-03-11T03:28:09.332Z,8.60
2023-03-11T03:30:40.853Z,8.50
2023-03-11T03:33:09.801Z,8.50
2023-03-11T03:35:43.355Z,8.40
2023-03-11T03:38:18.554Z,8.40
2023-03-11T03:40:50.106Z,8.30
2023-03-11T03:43:21.426Z,8.20
2023-03-11T03:45:57.483Z,8.20
2023-03-11T03:48:28.044Z,8.10
2023-03-11T03:50:58.572Z,8.00
2023-03-11T03:53:27.047Z,8.00
2023-03-11T03:55:55.835Z,7.90
2023-03-11T03:58:25.248Z,7.80
2023-03-11T04:00:57.266Z,7.80
2023-03-11T04:03:26.481Z,7.70
2023-03-11T04:06:09.737Z,7.70
2023-03-11T04:08:38.791Z,7.60
2023-03-11T04:11:07.253Z,7.50
2023-03-11T04:13:37.777Z,7.50
2023-03-11T04:16:08.776Z,7.50
2023-03-11T04:18:37.560Z,7.40
2023-03-11T04:21:09.535Z,7.40
2023-03-11T04:23:38.754Z,7.30
2023-03-11T04:26:08.459Z,7.30
2023-03-11T04:28:39.759Z,7.20
2023-03-11T04:31:09.464Z,7.10
2023-03-11T04:33:37.967Z,7.10
2023-03-11T04:36:11.753Z,7.00
2023-03-11T04:38:40.649Z,6.90
2023-03-11T04:41:11.671Z,6.80
2023-03-11T04:43:41.974Z,6.80
2023-03-11T04:46:10.703Z,6.70
2023-03-11T04:48:40.478Z,6.60
2023-03-11T04:51:11.030Z,6.50
2023-03-11T04:53:39.748Z,6.40
2023-03-11T04:56:08.826Z,6.30
2023-03-11T04:58:39.338Z,6.30
2023-03-11T05:01:08.504Z,6.20
2023-03-11T05:03:36.932Z,6.20
2023-03-11T05:06:05.832Z,6.10
2023-03-11T05:08:35.821Z,6.10
2023-03-11T05:11:04.526Z,6.00
2023-03-11T05:13:33.260Z,6.00
2023-03-11T05:16:01.891Z,6.00
2023-03-11T05:18:32.500Z,5.90
2023-03-11T05:21:01.317Z,6.00
2023-03-11T05:23:33.092Z,5.90
2023-03-11T05:26:04.167Z,5.90
2023-03-11T05:28:33.904Z,5.90
2023-03-11T05:31:03.430Z,5.90
2023-03-11T05:33:35.888Z,5.80
2023-03-11T05:36:08.390Z,5.80
2023-03-11T05:38:38.256Z,5.80
2023-03-11T05:41:08.039Z,5.80
2023-03-11T05:43:37.820Z,5.80
2023-03-11T05:46:06.415Z,5.90
2023-03-11T05:48:36.386Z,6.00
2023-03-11T05:51:08.703Z,6.30
2023-03-11T05:53:37.859Z,6.50
2023-03-11T05:56:09.210Z,6.60
2023-03-11T05:58:38.022Z,6.50
2023-03-11T06:01:10.225Z,6.50
2023-03-11T06:03:39.260Z,6.40
2023-03-11T06:06:09.605Z,6.30
2023-03-11T06:08:39.900Z,6.20
2023-03-11T06:11:11.679Z,6.10
2023-03-11T06:13:41.371Z,6.10
2023-03-11T06:16:12.618Z,6.30
2023-03-11T06:18:41.349Z,6.50
2023-03-11T06:21:12.343Z,6.50
2023-03-11T06:23:41.062Z,6.50
2023-03-11T06:26:13.771Z,6.50
2023-03-11T06:28:44.281Z,6.40
2023-03-11T06:31:15.950Z,6.30
2023-03-11T06:33:45.006Z,6.20
2023-03-11T06:36:15.867Z,6.10
2023-03-11T06:38:44.412Z,6.00
2023-03-11T06:41:14.633Z,6.20
2023-03-11T06:43:43.552Z,6.70
2023-03-11T06:46:14.317Z,7.30
2023-03-11T06:48:42.928Z,8.00
2023-03-11T06:51:12.825Z,8.60
2023-03-11T06:53:41.587Z,9.20
2023-03-11T06:56:14.768Z,9.60
2023-03-11T06:58:49.121Z,10.10
2023-03-11T07:01:21.054Z,10.40
2023-03-11T07:03:51.372Z,10.60
2023-03-11T07:06:24.571Z,10.70
2023-03-11T07:08:55.551Z,10.50
2023-03-11T07:11:26.670Z,10.20
2023-03-11T07:14:00.535Z,9.90
2023-03-11T07:16:33.006Z,9.80
2023-03-11T07:19:08.766Z,9.90
2023-03-11T07:21:37.259Z,10.20
2023-03-11T07:24:06.305Z,10.60
2023-03-11T07:26:37.636Z,11.10
2023-03-11T07:29:06.485Z,11.70
2023-03-11T07:31:36.138Z,12.10
2023-03-11T07:34:11.376Z,12.50
2023-03-11T07:36:43.064Z,12.80
2023-03-11T07:39:15.488Z,13.00
2023-03-11T07:41:46.132Z,13.10
2023-03-11T07:44:16.074Z,13.00
2023-03-11T07:46:45.326Z,12.80
2023-03-11T07:49:14.040Z,12.50
2023-03-11T07:51:43.818Z,12.20
2023-03-11T07:54:13.365Z,12.10
2023-03-11T07:56:42.029Z,12.00
2023-03-11T07:59:12.014Z,11.70
2023-03-11T08:01:41.525Z,11.40
2023-03-11T08:04:14.302Z,11.00
2023-03-11T08:06:44.835Z,10.70
2023-03-11T08:09:14.015Z,10.80
2023-03-11T08:11:43.287Z,10.90
2023-03-11T08:14:13.098Z,11.00
2023-03-11T08:16:43.046Z,11.00
2023-03-11T08:19:13.629Z,10.90
2023-03-11T08:21:42.030Z,10.80
2023-03-11T08:24:13.052Z,10.50
2023-03-11T08:26:41.995Z,10.30
2023-03-11T08:29:10.471Z,10.00
2023-03-11T08:31:40.210Z,9.80
2023-03-11T08:34:11.208Z,9.70
2023-03-11T08:36:39.879Z,9.50
2023-03-11T08:39:08.338Z,9.40
2023-03-11T08:41:36.786Z,9.20
2023-03-11T08:44:05.407Z,9.00
2023-03-11T08:46:36.143Z,8.90
2023-03-11T08:49:06.713Z,8.80
2023-03-11T08:51:36.952Z,8.70
2023-03-11T08:54:05.983Z,8.50
2023-03-11T08:56:34.385Z,8.50
2023-03-11T08:59:02.763Z,8.40
2023-03-11T09:01:34.170Z,8.40
2023-03-11T09:04:02.583Z,8.30
2023-03-11T09:06:32.409Z,8.20
2023-03-11T09:09:01.084Z,8.20
2023-03-11T09:11:29.521Z,8.10
2023-03-11T09:13:58.014Z,8.00
2023-03-11T09:16:26.977Z,8.00
2023-03-11T09:18:55.774Z,8.00
2023-03-11T09:21:24.614Z,8.00
2023-03-11T09:23:54.447Z,8.00
2023-03-11T09:26:23.103Z,8.10
2023-03-11T09:28:51.491Z,8.20
2023-03-11T09:31:20.240Z,8.20
2023-03-11T09:33:50.062Z,8.40
2023-03-11T09:36:20.403Z,8.50
2023-03-11T09:38:49.626Z,8.70
2023-03-11T09:41:30.883Z,8.90
2023-03-11T09:44:12.802Z,9.20
2023-03-11T09:47:12.256Z,9.40
2023-03-11T09:49:57.201Z,9.50
2023-03-11T09:52:31.743Z,9.50
2023-03-11T09:55:04.485Z,9.50
2023-03-11T09:57:38.861Z,9.40
2023-03-11T10:00:08.599Z,9.40
2023-03-11T10:02:43.733Z,9.40
2023-03-11T10:05:20.192Z,9.30
2023-03-11T10:07:56.186Z,9.30
2023-03-11T10:10:25.561Z,9.30
2023-03-11T10:13:03.305Z,9.40
2023-03-11T10:15:48.239Z,9.80
2023-03-11T10:18:34.785Z,10.10
2023-03-11T10:21:08.820Z,10.50
2023-03-11T10:23:57.027Z,10.80
2023-03-11T10:26:32.512Z,11.10
2023-03-11T10:29:11.417Z,11.40
2023-03-11T10:31:44.492Z,11.60
2023-03-11T10:34:19.262Z,12.00
2023-03-11T10:36:58.556Z,12.30
2023-03-11T10:39:28.508Z,12.40
2023-03-11T10:42:00.762Z,12.50
2023-03-11T10:44:34.301Z,12.60
2023-03-11T10:47:03.194Z,12.60
2023-03-11T10:49:32.135Z,12.40
2023-03-11T10:52:00.540Z,12.20
2023-03-11T10:54:31.597Z,11.80
2023-03-11T10:57:01.967Z,11.50
2023-03-11T10:59:34.434Z,11.20
2023-03-11T11:02:05.274Z,10.90
2023-03-11T11:04:38.298Z,10.60
2023-03-11T11:07:39.616Z,10.40
2023-03-11T11:10:22.885Z,10.10
2023-03-11T11:12:57.066Z,9.90
2023-03-11T11:15:30.615Z,9.70
2023-03-11T11:18:01.357Z,9.50
2023-03-11T11:20:31.662Z,9.40
2023-03-11T11:23:02.127Z,9.30
2023-03-11T11:25:33.760Z,9.20
2023-03-11T11:28:05.229Z,9.10
2023-03-11T11:30:35.080Z,9.10
2023-03-11T11:33:24.643Z,9.20
2023-03-11T11:35:55.572Z,9.30
2023-03-11T11:38:26.451Z,9.50
2023-03-11T11:40:58.161Z,9.60
2023-03-11T11:43:51.678Z,9.70
2023-03-11T11:46:31.525Z,9.80
2023-03-11T11:49:12.533Z,10.00
2023-03-11T11:51:45.948Z,10.20
2023-03-11T11:54:30.900Z,10.20
2023-03-11T11:57:01.534Z,10.30
2023-03-11T11:59:31.900Z,10.50
2023-03-11T12:02:14.324Z,10.80
2023-03-11T12:05:01.446Z,11.10
2023-03-11T12:07:41.210Z,11.30
2023-03-11T12:10:24.109Z,11.50
2023-03-11T12:13:15.695Z,11.50
2023-03-11T12:15:48.895Z,11.50
2023-03-11T12:18:25.098Z,11.50
2023-03-11T12:20:56.788Z,11.50
2023-03-11T12:23:44.301Z,11.30
2023-03-11T12:26:18.800Z,11.30
2023-03-11T12:28:53.930Z,11.20
2023-03-11T12:31:24.617Z,11.20
2023-03-11T12:34:03.936Z,11.30
2023-03-11T12:36:34.655Z,11.70
2023-03-11T12:39:06.213Z,12.20
2023-03-11T12:41:40.006Z,12.70
2023-03-11T12:44:25.634Z,13.10
2023-03-11T12:47:19.328Z,13.40
2023-03-11T12:49:51.828Z,13.20
2023-03-11T12:52:26.934Z,12.90
2023-03-11T12:55:30.347Z,12.50
2023-03-11T12:58:27.326Z,12.00
2023-03-11T13:01:12.392Z,11.60
2023-03-11T13:03:53.033Z,11.20
2023-03-11T13:06:59.681Z,10.90
2023-03-11T13:09:31.021Z,10.50
2023-03-11T13:12:00.081Z,10.30
2023-03-11T13:14:33.280Z,10.20
2023-03-11T13:17:26.303Z,10.10
2023-03-11T13:19:57.212Z,10.00
2023-03-11T13:23:06.259Z,9.90
2023-03-11T13:25:40.064Z,9.70
2023-03-11T13:28:30.805Z,9.40
2023-03-11T13:31:25.125Z,9.20
2023-03-11T13:33:55.443Z,8.90
2023-03-11T13:36:51.283Z,8.70
2023-03-11T13:39:53.046Z,8.50
2023-03-11T13:42:31.401Z,8.30
2023-03-11T13:45:00.821Z,8.20
2023-03-11T13:47:31.851Z,8.20
2023-03-11T13:50:06.935Z,8.10
2023-03-11T13:52:39.332Z,8.00
2023-03-11T13:55:18.773Z,8.00
2023-03-11T13:57:51.707Z,7.90
2023-03-11T14:00:24.353Z,7.80
2023-03-11T14:02:56.297Z,7.70
2023-03-11T14:05:27.221Z,7.60
2023-03-11T14:07:55.876Z,7.50
2023-03-11T14:10:29.208Z,7.50
2023-03-11T14:13:15.444Z,7.40
2023-03-11T14:15:49.016Z,7.40
2023-03-11T14:18:28.442Z,7.30
2023-03-11T14:20:57.880Z,7.20
2023-03-11T14:23:30.398Z,7.20
2023-03-11T14:26:09.017Z,7.30
2023-03-11T14:28:41.438Z,7.40
2023-03-11T14:31:26.965Z,7.40
2023-03-11T14:34:04.466Z,7.50
2023-03-11T14:36:44.229Z,7.50
2023-03-11T14:39:30.151Z,7.50
2023-03-11T14:42:05.285Z,7.50
2023-03-11T14:44:35.804Z,7.40
2023-03-11T14:47:10.173Z,7.30
2023-03-11T14:49:39.582Z,7.30
2023-03-11T14:52:18.498Z,7.20
2023-03-11T14:54:47.921Z,7.20
2023-03-11T14:57:24.071Z,7.10
2023-03-11T14:59:54.314Z,7.10
2023-03-11T15:02:42.050Z,7.10
2023-03-11T15:05:17.311Z,7.10
2023-03-11T15:07:46.703Z,7.10
2023-03-11T15:10:15.803Z,7.10
2023-03-11T15:12:46.505Z,7.10
2023-03-11T15:15:27.373Z,7.00
2023-03-11T15:17:57.511Z,7.00
2023-03-11T15:20:31.213Z,6.90
2023-03-11T15:23:01.858Z,6.80
2023-03-11T15:25:33.361Z,6.80
2023-03-11T15:28:16.170Z,6.70
2023-03-11T15:30:44.691Z,6.60
2023-03-11T15:33:24.226Z,6.60
2023-03-11T15:35:52.669Z,6.50
2023-03-11T15:38:25.447Z,6.40
2023-03-11T15:40:59.281Z,6.40
2023-03-11T15:43:32.343Z,6.30
2023-03-11T15:46:03.261Z,6.30
2023-03-11T15:48:31.776Z,6.20
2023-03-11T15:51:01.566Z,6.20
2023-03-11T15:53:31.128Z,6.20
2023-03-11T15:56:07.788Z,6.10
2023-03-11T15:58:39.289Z,6.10
2023-03-11T16:01:07.783Z,6.00
2023-03-11T16:03:36.627Z,6.00
2023-03-11T16:06:05.224Z,5.90
2023-03-11T16:08:34.706Z,5.90
2023-03-11T16:11:03.114Z,5.80
2023-03-11T16:13:31.423Z,5.80
2023-03-11T16:16:04.185Z,5.70
2023-03-11T16:18:33.856Z,5.70
2023-03-11T16:21:04.812Z,5.70
2023-03-11T16:23:50.700Z,5.60
2023-03-11T16:26:20.376Z,5.60
2023-03-11T16:28:48.871Z,5.50
2023-03-11T16:31:18.615Z,5.50
2023-03-11T16:33:51.184Z,5.40
2023-03-11T16:36:20.945Z,5.30
2023-03-11T16:38:51.515Z,5.20
2023-03-11T16:41:19.934Z,5.20
2023-03-11T16:43:49.612Z,5.10
2023-03-11T16:46:19.433Z,5.00
2023-03-11T16:48:47.781Z,4.90
2023-03-11T16:51:16.060Z,4.80
2023-03-11T16:53:44.461Z,4.70
2023-03-11T16:56:12.802Z,4.60
2023-03-11T16:58:41.216Z,4.60
2023-03-11T17:01:12.789Z,4.50
2023-03-11T17:03:43.532Z,4.40
2023-03-11T17:06:12.330Z,4.40
2023-03-11T17:08:40.677Z,4.40
2023-03-11T17:11:16.235Z,4.40
2023-03-11T17:13:44.902Z,4.30
2023-03-11T17:16:13.523Z,4.30
2023-03-11T17:18:43.599Z,4.30
2023-03-11T17:21:14.284Z,4.30
2023-03-11T17:23:43.456Z,4.30
2023-03-11T17:26:13.880Z,4.30
2023-03-11T17:28:42.697Z,4.30
2023-03-11T17:31:14.435Z,4.30
2023-03-11T17:33:44.794Z,4.30
2023-03-11T17:36:17.292Z,4.30
2023-03-11T17:38:46.907Z,4.30
2023-03-11T17:41:17.585Z,4.30
2023-03-11T17:43:46.724Z,4.30
2023-03-11T17:46:17.846Z,4.30
2023-03-11T17:48:49.129Z,4.30
2023-03-11T17:51:19.568Z,4.20
2023-03-11T17:53:49.179Z,4.20
2023-03-11T17:56:19.165Z,4.20
2023-03-11T17:58:48.158Z,4.20
2023-03-11T18:01:19.235Z,4.20
2023-03-11T18:03:49.386Z,4.20
2023-03-11T18:06:19.611Z,4.20
2023-03-11T18:08:48.109Z,4.20
2023-03-11T18:11:19.580Z,4.20
2023-03-11T18:13:48.106Z,4.20
2023-03-11T18:16:19.325Z,4.20
2023-03-11T18:18:50.027Z,4.10
2023-03-11T18:21:20.594Z,4.10
2023-03-11T18:23:49.867Z,4.10
2023-03-11T18:26:19.999Z,4.10
2023-03-11T18:28:48.612Z,4.10
2023-03-11T18:31:19.084Z,4.10
2023-03-11T18:33:51.272Z,4.10
2023-03-11T18:36:21.043Z,4.10
2023-03-11T18:38:50.783Z,4.00
2023-03-11T18:41:19.521Z,4.00
2023-03-11T18:43:47.727Z,4.00
2023-03-11T18:46:17.264Z,4.00
2023-03-11T18:48:45.575Z,4.00
2023-03-11T18:51:15.420Z,3.90
2023-03-11T18:53:43.837Z,3.90
2023-03-11T18:56:14.324Z,3.90
2023-03-11T18:58:43.087Z,3.90
2023-03-11T19:01:14.172Z,3.90
2023-03-11T19:03:43.259Z,3.80
2023-03-11T19:06:14.200Z,3.80
2023-03-11T19:08:43.489Z,3.70
2023-03-11T19:11:13.453Z,3.70
2023-03-11T19:13:46.961Z,3.60
2023-03-11T19:16:17.988Z,3.50
2023-03-11T19:18:46.922Z,3.50
2023-03-11T19:21:17.692Z,3.40
2023-03-11T19:23:46.703Z,3.30
2023-03-11T19:26:15.216Z,3.30
2023-03-11T19:28:43.633Z,3.20
2023-03-11T19:31:12.120Z,3.20
2023-03-11T19:33:40.814Z,3.10
2023-03-11T19:36:10.223Z,3.10
2023-03-11T19:38:40.537Z,3.00
2023-03-11T19:41:12.106Z,2.90
2023-03-11T19:43:40.518Z,2.90
2023-03-11T19:46:11.592Z,2.80
2023-03-11T19:48:40.373Z,2.80
2023-03-11T19:51:08.909Z,2.70
2023-03-11T19:53:40.709Z,2.60
2023-03-11T19:56:10.158Z,2.60
2023-03-11T19:58:38.848Z,2.50
2023-03-11T20:01:07.344Z,2.50
2023-03-11T20:03:35.852Z,2.40
2023-03-11T20:06:06.511Z,2.40
2023-03-11T20:08:37.398Z,2.30
2023-03-11T20:11:14.165Z,2.30
2023-03-11T20:13:44.168Z,2.20
2023-03-11T20:16:18.483Z,2.20
2023-03-11T20:18:50.533Z,2.10
2023-03-11T20:21:20.435Z,2.10
2023-03-11T20:23:49.784Z,2.00
2023-03-11T20:26:19.928Z,2.00
2023-03-11T20:28:48.667Z,2.00
2023-03-11T20:31:37.533Z,1.90
2023-03-11T20:34:06.204Z,1.90
2023-03-11T20:36:35.276Z,2.00
2023-03-11T20:39:04.621Z,2.00
2023-03-11T20:41:39.422Z,2.00
2023-03-11T20:44:10.134Z,2.00
2023-03-11T20:46:38.654Z,2.00
2023-03-11T20:49:07.204Z,2.00
2023-03-11T20:51:35.905Z,2.00
2023-03-11T20:54:04.528Z,2.00
2023-03-11T20:56:33.250Z,2.00
2023-03-11T20:59:03.005Z,2.00
2023-03-11T21:01:35.617Z,2.00
2023-03-11T21:04:04.869Z,2.00
2023-03-11T21:06:36.093Z,2.00
2023-03-11T21:09:07.414Z,2.10
2023-03-11T21:11:36.112Z,2.10
2023-03-11T21:14:06.988Z,2.10
2023-03-11T21:16:37.293Z,2.10
2023-03-11T21:19:08.917Z,2.10
2023-03-11T21:21:38.330Z,2.10
2023-03-11T21:24:07.776Z,2.20
2023-03-11T21:26:36.446Z,2.20
2023-03-11T21:29:06.395Z,2.20
2023-03-11T21:31:34.923Z,2.20
2023-03-11T21:34:03.508Z,2.20
2023-03-11T21:36:32.290Z,2.30
2023-03-11T21:39:03.448Z,2.20
2023-03-11T21:41:32.481Z,2.30
2023-03-11T21:44:01.420Z,2.30
2023-03-11T21:46:33.384Z,2.30
2023-03-11T21:49:02.937Z,2.30
2023-03-11T21:51:31.643Z,2.30
2023-03-11T21:54:00.354Z,2.30
2023-03-11T21:56:30.188Z,2.30
2023-03-11T21:58:58.992Z,2.30
2023-03-11T22:01:27.591Z,2.30
2023-03-11T22:03:57.558Z,2.30
2023-03-11T22:06:26.008Z,2.30
2023-03-11T22:08:54.630Z,2.30
2023-03-11T22:11:23.162Z,2.30
2023-03-11T22:13:53.999Z,2.30
2023-03-11T22:16:24.544Z,2.30
2023-03-11T22:18:53.662Z,2.30
2023-03-11T22:21:23.623Z,2.20
2023-03-11T22:23:52.051Z,2.20
2023-03-11T22:26:20.462Z,2.20
2023-03-11T22:28:48.926Z,2.20
2023-03-11T22:31:19.304Z,2.10
2023-03-11T22:33:48.172Z,2.10
2023-03-11T22:36:16.726Z,2.00
2023-03-11T22:38:46.404Z,2.00
2023-03-11T22:41:16.888Z,2.00
2023-03-11T22:43:45.397Z,1.90
2023-03-11T22:46:13.886Z,1.80
2023-03-11T22:48:42.957Z,1.80
2023-03-11T22:51:11.372Z,1.70
2023-03-11T22:53:39.785Z,1.70
2023-03-11T22:56:12.046Z,1.60
2023-03-11T22:58:40.474Z,1.50
2023-03-11T23:01:09.334Z,1.50
2023-03-11T23:03:38.459Z,1.50
2023-03-11T23:06:09.018Z,1.50
2023-03-11T23:08:37.661Z,1.50
2023-03-11T23:11:09.080Z,1.50
2023-03-11T23:13:40.521Z,1.50
2023-03-11T23:16:11.141Z,1.50
2023-03-11T23:18:39.657Z,1.50
2023-03-11T23:21:15.967Z,1.50
2023-03-11T23:23:45.078Z,1.40
2023-03-11T23:26:14.933Z,1.40
2023-03-11T23:28:47.011Z,1.30
2023-03-11T23:31:16.576Z,1.20
2023-03-11T23:33:45.393Z,1.20
2023-03-11T23:36:17.102Z,1.10
2023-03-11T23:38:45.918Z,1.10
2023-03-11T23:41:16.458Z,1.00
2023-03-11T23:43:46.610Z,0.90
2023-03-11T23:46:15.738Z,0.90
2023-03-11T23:48:44.159Z,0.80
2023-03-11T23:51:12.710Z,0.70
2023-03-11T23:53:41.705Z,0.70
2023-03-11T23:56:14.702Z,0.60
2023-03-11T23:58:43.170Z,0.50
